Time;durP1;ratioP1;P1;durP2;ratioP2;P2;SDS_P1;SDS_P2;PMS_P1;PMS_P2;Temp;Humidity;BMP_temperature;BMP_pressure;BME280_temperature;BME280_humidity;BME280_pressure;Samples;Min_cycle;Max_cycle;Signal;HPM_P1;HPM_P2
2023/09/16 00:04:33;;;;;;;6.30;3.80;;;10.90;99.90;;;;;;10421293;28;20231;-80
2023/09/16 00:09:38;;;;;;;7.60;4.72;;;10.80;99.90;;;;;;10429711;28;20238;-79
2023/09/16 00:14:56;;;;;;;4.93;3.60;;;10.70;99.90;;;;;;10420850;28;20281;-80
2023/09/16 00:19:58;;;;;;;6.73;4.20;;;10.50;99.90;;;;;;10421574;28;20196;-80
2023/09/16 00:25:01;;;;;;;8.77;4.60;;;10.40;99.90;;;;;;10419716;28;20215;-80
2023/09/16 00:30:04;;;;;;;4.50;3.57;;;10.40;99.90;;;;;;10430686;28;20220;-81
2023/09/16 00:35:08;;;;;;;5.30;3.77;;;10.40;99.90;;;;;;10426131;28;20629;-81
2023/09/16 00:40:11;;;;;;;8.67;4.03;;;10.30;99.90;;;;;;10452416;28;20215;-80
2023/09/16 00:45:14;;;;;;;5.80;4.17;;;10.30;99.90;;;;;;10452180;28;20300;-81
2023/09/16 00:50:17;;;;;;;6.03;3.47;;;10.10;99.90;;;;;;10452022;28;20701;-80
2023/09/16 00:55:20;;;;;;;5.33;4.20;;;10.10;99.90;;;;;;10452036;28;20273;-80
2023/09/16 01:00:26;;;;;;;7.23;3.93;;;10.00;99.90;;;;;;10451606;28;20300;-81
2023/09/16 01:05:30;;;;;;;6.67;4.10;;;9.90;99.90;;;;;;10433088;28;20320;-81
2023/09/16 01:10:33;;;;;;;6.63;4.27;;;9.80;99.90;;;;;;10409495;28;20203;-80
2023/09/16 01:16:01;;;;;;;8.83;4.60;;;9.60;99.90;;;;;;10410179;28;20629;-81
2023/09/16 01:21:06;;;;;;;5.60;4.37;;;9.50;99.90;;;;;;10412124;28;20192;-80
2023/09/16 01:26:09;;;;;;;8.70;4.80;;;9.40;99.90;;;;;;10408764;28;20255;-80
2023/09/16 01:31:12;;;;;;;6.70;5.00;;;9.30;99.90;;;;;;10420397;28;20274;-81
2023/09/16 01:36:20;;;;;;;5.87;4.50;;;9.30;99.90;;;;;;10410787;28;20235;-80
2023/09/16 01:41:23;;;;;;;10.53;5.40;;;9.20;99.90;;;;;;10409056;28;20243;-80
2023/09/16 01:46:26;;;;;;;7.43;6.73;;;9.10;99.90;;;;;;10392567;28;20660;-81
2023/09/16 01:51:30;;;;;;;6.87;5.37;;;9.00;99.90;;;;;;10408988;28;20575;-81
2023/09/16 01:56:32;;;;;;;6.77;5.83;;;8.90;99.90;;;;;;10409723;28;20270;-81
2023/09/16 02:01:35;;;;;;;8.47;6.70;;;8.80;99.90;;;;;;10408632;28;20204;-81
2023/09/16 02:06:38;;;;;;;9.07;7.07;;;8.60;99.90;;;;;;10402695;28;20258;-80
2023/09/16 02:11:40;;;;;;;8.77;7.03;;;8.60;99.90;;;;;;10408573;28;20215;-80
2023/09/16 02:16:47;;;;;;;8.07;6.73;;;8.60;99.90;;;;;;10408228;28;20265;-81
2023/09/16 02:21:50;;;;;;;8.53;6.90;;;8.60;99.90;;;;;;10430507;28;20764;-81
2023/09/16 02:26:53;;;;;;;8.63;6.27;;;8.40;99.90;;;;;;10448765;28;20253;-81
2023/09/16 02:31:55;;;;;;;10.07;7.20;;;8.40;99.90;;;;;;10448648;28;20230;-81
2023/09/16 02:36:59;;;;;;;8.00;6.10;;;8.30;99.90;;;;;;10429979;28;20223;-80
2023/09/16 02:42:04;;;;;;;14.67;7.50;;;8.30;99.90;;;;;;10431446;28;20710;-81
2023/09/16 02:47:06;;;;;;;11.90;8.03;;;8.10;99.90;;;;;;10448794;28;20278;-80
2023/09/16 02:52:09;;;;;;;8.77;7.87;;;8.00;99.90;;;;;;10441011;28;20234;-81
2023/09/16 02:57:12;;;;;;;12.33;9.67;;;8.00;99.90;;;;;;10432111;28;20214;-81
2023/09/16 03:02:15;;;;;;;10.13;7.53;;;8.00;99.90;;;;;;10448633;28;20261;-80
2023/09/16 03:07:18;;;;;;;13.00;6.70;;;7.90;99.90;;;;;;10447642;28;20631;-80
2023/09/16 03:12:22;;;;;;;6.53;5.27;;;7.90;99.90;;;;;;10430870;28;20207;-80
2023/09/16 03:17:26;;;;;;;11.23;5.60;;;;;;;;;;10444565;28;20234;-81
2023/09/16 03:22:29;;;;;;;7.23;5.40;;;7.70;99.90;;;;;;10430486;28;20311;-80
2023/09/16 03:27:33;;;;;;;6.40;5.47;;;7.70;99.90;;;;;;10431564;28;20297;-81
2023/09/16 03:32:39;;;;;;;9.93;5.63;;;7.60;99.90;;;;;;10405776;28;20315;-80
2023/09/16 03:37:43;;;;;;;13.47;7.10;;;7.50;99.90;;;;;;10405270;28;20242;-80
2023/09/16 03:42:45;;;;;;;8.63;6.80;;;7.60;99.90;;;;;;10406947;28;20645;-80
2023/09/16 03:47:49;;;;;;;10.37;6.90;;;7.50;99.90;;;;;;10428125;28;20304;-80
2023/09/16 03:52:53;;;;;;;11.33;7.53;;;7.50;99.90;;;;;;10451927;28;20282;-81
2023/09/16 03:57:56;;;;;;;9.93;7.90;;;7.50;99.90;;;;;;10416530;28;20269;-80
2023/09/16 04:02:59;;;;;;;11.67;7.53;;;7.50;99.90;;;;;;10411945;28;20238;-80
2023/09/16 04:08:02;;;;;;;10.63;8.50;;;7.50;99.90;;;;;;10411426;28;20329;-81
2023/09/16 04:13:04;;;;;;;11.57;8.33;;;7.50;99.90;;;;;;10411602;28;20203;-80
2023/09/16 04:18:07;;;;;;;10.23;7.20;;;7.40;99.90;;;;;;10412622;28;20664;-81
2023/09/16 04:23:09;;;;;;;12.97;8.90;;;7.40;99.90;;;;;;10412881;28;20630;-80
2023/09/16 04:28:15;;;;;;;14.00;8.63;;;7.40;99.90;;;;;;10441955;28;20280;-80
2023/09/16 04:33:18;;;;;;;9.93;7.07;;;7.40;99.90;;;;;;10439264;28;20747;-81
2023/09/16 04:38:22;;;;;;;8.03;6.77;;;7.40;99.90;;;;;;10433367;28;20245;-80
2023/09/16 04:43:30;;;;;;;11.37;8.03;;;7.40;99.90;;;;;;10451264;28;20203;-80
2023/09/16 04:48:33;;;;;;;11.37;8.33;;;7.50;99.90;;;;;;10450384;28;20681;-80
2023/09/16 04:53:38;;;;;;;11.70;8.17;;;7.60;99.90;;;;;;10433862;28;20301;-81
2023/09/16 04:58:41;;;;;;;8.77;7.87;;;7.60;99.90;;;;;;10415512;28;20269;-81
2023/09/16 05:03:43;;;;;;;9.83;7.47;;;7.70;99.90;;;;;;10417140;28;20283;-81
2023/09/16 05:08:47;;;;;;;10.77;6.83;;;7.70;99.90;;;;;;10450070;28;20263;-81
2023/09/16 05:13:51;;;;;;;11.60;6.17;;;7.90;99.90;;;;;;10425016;28;20223;-81
2023/09/16 05:18:54;;;;;;;9.03;5.87;;;8.00;99.90;;;;;;10410478;28;20235;-81
2023/09/16 05:23:57;;;;;;;6.53;5.33;;;8.20;99.90;;;;;;10408049;28;20222;-81
2023/09/16 05:29:01;;;;;;;8.00;5.80;;;8.40;99.90;;;;;;10445900;28;20259;-81
2023/09/16 05:34:06;;;;;;;7.83;6.17;;;8.60;99.90;;;;;;10433410;28;20243;-81
2023/09/16 05:39:09;;;;;;;8.67;5.27;;;8.80;99.90;;;;;;10447142;28;20271;-81
2023/09/16 05:44:11;;;;;;;6.13;5.17;;;9.20;99.90;;;;;;10449814;28;20269;-80
2023/09/16 05:49:14;;;;;;;9.07;6.03;;;9.50;99.90;;;;;;10448822;28;20258;-81
2023/09/16 05:54:18;;;;;;;8.33;5.73;;;9.80;99.90;;;;;;10449048;28;20206;-80
2023/09/16 05:59:21;;;;;;;7.80;5.17;;;10.00;99.90;;;;;;10444083;28;20241;-80
2023/09/16 06:04:27;;;;;;;7.30;4.83;;;10.30;99.90;;;;;;10444614;28;20214;-80
2023/09/16 06:09:30;;;;;;;7.67;5.13;;;10.60;99.90;;;;;;10411154;28;20250;-81
2023/09/16 06:14:32;;;;;;;13.77;5.27;;;10.90;99.90;;;;;;10407958;28;20312;-80
2023/09/16 06:19:38;;;;;;;7.10;4.63;;;11.10;99.90;;;;;;10408179;28;20238;-80
2023/09/16 06:24:41;;;;;;;8.23;5.03;;;11.30;99.90;;;;;;10428682;28;20239;-81
2023/09/16 06:29:46;;;;;;;5.63;4.37;;;11.60;99.90;;;;;;10446942;28;20665;-80
2023/09/16 06:34:49;;;;;;;7.87;5.00;;;11.80;99.90;;;;;;10445632;28;20609;-81
2023/09/16 06:39:52;;;;;;;7.70;6.20;;;12.10;99.90;;;;;;10443169;28;20292;-81
2023/09/16 06:44:56;;;;;;;9.20;3.97;;;12.30;99.90;;;;;;10420365;28;20288;-81
2023/09/16 06:50:01;;;;;;;5.75;4.30;;;12.50;99.90;;;;;;10419406;28;20305;-81
2023/09/16 06:55:05;;;;;;;6.85;4.25;;;12.80;99.90;;;;;;10442184;28;20227;-81
2023/09/16 07:00:08;;;;;;;5.97;4.47;;;13.00;99.90;;;;;;10432598;28;21055;-80
2023/09/16 07:05:10;;;;;;;6.63;4.30;;;13.30;99.90;;;;;;10429417;28;20238;-81
2023/09/16 07:10:13;;;;;;;7.90;4.38;;;13.60;99.90;;;;;;10407103;28;20775;-81
2023/09/16 07:15:19;;;;;;;3.13;2.35;;;14.00;99.90;;;;;;10445123;28;20223;-84
2023/09/16 07:20:22;;;;;;;3.33;3.03;;;14.40;99.90;;;;;;10452976;28;20237;-82
2023/09/16 07:25:25;;;;;;;5.63;3.45;;;14.80;99.90;;;;;;10454325;28;20203;-81
2023/09/16 07:30:28;;;;;;;11.77;4.18;;;15.20;99.90;;;;;;10455770;28;20258;-81
2023/09/16 07:35:31;;;;;;;4.88;3.58;;;15.50;99.90;;;;;;10429775;28;20726;-81
2023/09/16 07:40:35;;;;;;;5.70;3.58;;;15.90;99.90;;;;;;10440544;28;20243;-81
2023/09/16 07:45:40;;;;;;;10.63;3.20;;;16.10;99.90;;;;;;10412634;28;20289;-81
2023/09/16 07:50:44;;;;;;;2.78;1.80;;;16.50;99.90;;;;;;10414754;28;20239;-83
2023/09/16 07:55:46;;;;;;;5.43;2.53;;;16.90;99.90;;;;;;10454128;28;20238;-84
2023/09/16 08:00:49;;;;;;;4.97;2.30;;;17.30;99.90;;;;;;10458556;28;20235;-83
2023/09/16 08:05:53;;;;;;;4.15;2.97;;;17.70;98.50;;;;;;10423705;28;20255;-85
2023/09/16 08:10:56;;;;;;;5.80;2.65;;;18.00;97.30;;;;;;10450114;28;20518;-83
2023/09/16 08:15:58;;;;;;;7.28;2.70;;;18.20;97.00;;;;;;10453030;28;20292;-83
2023/09/16 08:21:01;;;;;;;1.98;1.77;;;18.60;94.80;;;;;;10453860;28;20629;-83
2023/09/16 08:26:03;;;;;;;4.70;2.53;;;18.90;93.50;;;;;;10452835;28;20254;-84
2023/09/16 08:31:06;;;;;;;3.25;2.63;;;19.10;92.10;;;;;;10451965;28;20292;-84
2023/09/16 08:36:09;;;;;;;3.80;2.20;;;19.30;91.30;;;;;;10445529;28;20234;-84
2023/09/16 08:41:21;;;;;;;3.35;2.50;;;19.50;91.30;;;;;;10452692;28;20247;-84
2023/09/16 08:46:27;;;;;;;2.72;1.75;;;19.70;91.10;;;;;;10090941;28;9999818;-84
2023/09/16 08:51:35;;;;;;;3.42;2.50;;;19.80;90.00;;;;;;10449184;28;20261;-84
2023/09/16 08:56:39;;;;;;;5.00;2.28;;;20.00;86.10;;;;;;10441219;28;20227;-84
2023/09/16 09:01:42;;;;;;;2.78;2.55;;;20.10;85.10;;;;;;10411146;28;20234;-85
2023/09/16 09:06:46;;;;;;;4.22;2.53;;;20.20;85.60;;;;;;10446961;28;20297;-85
2023/09/16 09:11:50;;;;;;;15.27;2.95;;;20.30;86.00;;;;;;10447415;28;20231;-84
2023/09/16 09:16:55;;;;;;;3.90;1.75;;;20.50;82.60;;;;;;10447298;28;20782;-85
2023/09/16 09:22:01;;;;;;;3.17;2.30;;;20.60;82.70;;;;;;10435029;28;20636;-84
2023/09/16 09:27:04;;;;;;;2.47;1.88;;;20.70;80.10;;;;;;10409677;28;20263;-84
2023/09/16 09:32:09;;;;;;;3.45;2.38;;;20.80;79.80;;;;;;10413171;28;20259;-83
2023/09/16 09:37:18;;;;;;;6.32;2.33;;;20.80;76.70;;;;;;10441665;28;20622;-85
2023/09/16 09:42:21;;;;;;;7.40;2.53;;;20.80;74.90;;;;;;10435968;28;20230;-86
2023/09/16 09:47:23;;;;;;;5.28;1.83;;;20.80;75.00;;;;;;10446107;28;20783;-84
2023/09/16 09:52:26;;;;;;;6.63;2.00;;;20.90;72.80;;;;;;10412331;28;20277;-84
2023/09/16 09:57:29;;;;;;;3.40;2.60;;;21.00;72.90;;;;;;10408888;28;20247;-84
2023/09/16 10:02:32;;;;;;;4.20;3.00;;;21.10;77.20;;;;;;10413236;28;20748;-85
2023/09/16 10:07:34;;;;;;;4.78;2.55;;;21.30;75.90;;;;;;10412560;28;20259;-84
2023/09/16 10:12:37;;;;;;;2.88;2.38;;;21.50;74.30;;;;;;10407975;28;20227;-86
2023/09/16 10:17:45;;;;;;;4.07;2.63;;;21.70;74.00;;;;;;10424358;28;20689;-84
2023/09/16 10:22:48;;;;;;;4.20;3.15;;;21.80;63.40;;;;;;10431719;28;20664;-83
2023/09/16 10:28:00;;;;;;;6.53;2.65;;;21.80;63.80;;;;;;10407984;28;20664;-84
2023/09/16 10:33:11;;;;;;;6.55;2.28;;;21.80;63.60;;;;;;10442194;28;20618;-85
2023/09/16 10:38:14;;;;;;;8.27;1.90;;;21.70;55.50;;;;;;10441182;28;20238;-85
2023/09/16 10:43:18;;;;;;;3.58;2.50;;;21.70;56.50;;;;;;10440731;28;20289;-86
2023/09/16 10:48:21;;;;;;;6.00;3.00;;;21.80;64.30;;;;;;10437821;28;20250;-84
2023/09/16 10:53:29;;;;;;;2.97;1.98;;;21.90;62.70;;;;;;10425503;28;20238;-83
2023/09/16 10:58:48;;;;;;;5.18;2.88;;;22.00;60.30;;;;;;10436478;28;20633;-85
2023/09/16 11:03:55;;;;;;;2.53;2.08;;;22.00;55.50;;;;;;10451143;28;20763;-84
2023/09/16 11:08:58;;;;;;;3.47;2.15;;;22.10;56.80;;;;;;10454535;28;20681;-84
2023/09/16 11:14:03;;;;;;;3.00;2.20;;;22.20;54.20;;;;;;10440241;28;20219;-84
2023/09/16 11:19:08;;;;;;;8.88;2.20;;;22.10;51.40;;;;;;10415792;28;20243;-85
2023/09/16 11:24:11;;;;;;;3.65;1.80;;;22.20;51.60;;;;;;10413884;28;20262;-85
2023/09/16 11:29:18;;;;;;;2.10;1.75;;;22.20;47.20;;;;;;10414643;28;20267;-85
2023/09/16 11:34:23;;;;;;;5.72;1.83;;;22.20;50.80;;;;;;10454650;28;20295;-85
2023/09/16 11:39:40;;;;;;;1.65;1.40;;;22.20;42.90;;;;;;10455148;28;20245;-84
2023/09/16 11:44:43;;;;;;;3.38;2.40;;;22.30;47.80;;;;;;10455638;28;20626;-84
2023/09/16 11:49:47;;;;;;;7.75;1.98;;;22.30;45.40;;;;;;10455530;28;20684;-84
2023/09/16 11:54:51;;;;;;;3.03;2.47;;;22.40;45.30;;;;;;10454719;28;20234;-86
2023/09/16 11:59:54;;;;;;;6.07;2.35;;;22.40;48.40;;;;;;10453917;28;20257;-85
2023/09/16 12:04:58;;;;;;;3.70;1.75;;;22.40;45.20;;;;;;10453525;28;20231;-85
2023/09/16 12:10:03;;;;;;;3.30;3.00;;;22.50;44.00;;;;;;10454310;28;20254;-84
2023/09/16 12:15:06;;;;;;;4.85;2.53;;;22.50;45.10;;;;;;10450846;28;20676;-87
2023/09/16 12:20:10;;;;;;;4.15;3.33;;;22.50;42.10;;;;;;10452937;28;20230;-87
2023/09/16 12:25:12;;;;;;;3.22;2.92;;;22.60;42.90;;;;;;10446858;28;20242;-86
2023/09/16 12:30:15;;;;;;;3.15;2.33;;;22.60;46.60;;;;;;10419570;28;20698;-86
2023/09/16 12:35:17;;;;;;;8.65;2.78;;;22.60;42.50;;;;;;10411936;28;20670;-87
2023/09/16 12:40:20;;;;;;;3.97;2.65;;;22.60;43.60;;;;;;10440517;28;20282;-88
2023/09/16 12:45:23;;;;;;;3.50;1.90;;;22.70;40.40;;;;;;10399673;23;20264;-86
2023/09/16 12:50:26;;;;;;;5.68;2.30;;;22.70;41.70;;;;;;10328434;28;20311;-85
2023/09/16 12:55:29;;;;;;;3.88;3.47;;;22.70;39.50;;;;;;10329864;28;20789;-85
2023/09/16 13:00:31;;;;;;;4.60;2.72;;;22.80;43.20;;;;;;10328443;28;20236;-86
2023/09/16 13:05:35;;;;;;;4.45;3.10;;;22.80;40.10;;;;;;10327664;28;20283;-86
2023/09/16 13:10:38;;;;;;;3.75;3.22;;;22.80;38.20;;;;;;10327953;28;20244;-85
2023/09/16 13:15:43;;;;;;;3.05;2.47;;;22.90;39.80;;;;;;10329227;28;20278;-86
2023/09/16 13:20:52;;;;;;;3.83;2.63;;;22.90;43.90;;;;;;10326162;28;20758;-86
2023/09/16 13:26:07;;;;;;;4.68;3.83;;;22.90;41.10;;;;;;10327837;28;20232;-86
2023/09/16 13:31:09;;;;;;;4.32;3.92;;;23.00;41.00;;;;;;10326235;28;20259;-85
2023/09/16 13:36:12;;;;;;;13.38;3.08;;;23.00;37.20;;;;;;10327780;28;20240;-83
2023/09/16 13:41:15;;;;;;;6.93;4.25;;;23.00;34.20;;;;;;10320501;28;20302;-86
2023/09/16 13:46:17;;;;;;;7.82;3.67;;;23.00;36.50;;;;;;10327904;28;20291;-85
2023/09/16 13:51:21;;;;;;;6.28;3.85;;;23.00;36.60;;;;;;10334885;28;20261;-85
2023/09/16 13:56:26;;;;;;;3.80;3.45;;;23.10;37.80;;;;;;10319231;28;20291;-86
2023/09/16 14:01:28;;;;;;;4.45;4.03;;;23.10;35.10;;;;;;10284129;28;20233;-85
2023/09/16 14:06:31;;;;;;;9.05;4.85;;;23.20;36.50;;;;;;10316040;28;20230;-85
2023/09/16 14:11:33;;;;;;;8.20;3.72;;;23.20;34.40;;;;;;10320632;28;20298;-85
2023/09/16 14:16:36;;;;;;;9.77;4.47;;;23.20;34.30;;;;;;10310757;28;20272;-86
2023/09/16 14:21:38;;;;;;;5.53;4.05;;;23.20;32.30;;;;;;10296390;28;20232;-85
2023/09/16 14:26:41;;;;;;;6.97;4.28;;;23.20;34.20;;;;;;10303098;28;20732;-85
2023/09/16 14:31:43;;;;;;;6.53;4.53;;;23.20;35.00;;;;;;10303011;28;20260;-85
2023/09/16 14:36:46;;;;;;;6.55;3.88;;;23.30;36.10;;;;;;10324971;28;20311;-85
2023/09/16 14:41:48;;;;;;;5.40;3.95;;;23.20;35.50;;;;;;10298819;28;20252;-85
2023/09/16 14:46:54;;;;;;;5.03;4.28;;;23.20;37.30;;;;;;10325044;28;20318;-85
2023/09/16 14:51:57;;;;;;;5.32;4.78;;;23.20;31.70;;;;;;10323799;28;20749;-85
2023/09/16 14:57:00;;;;;;;4.43;3.92;;;23.20;35.90;;;;;;10323998;28;20887;-85
2023/09/16 15:02:05;;;;;;;4.93;4.22;;;23.20;34.50;;;;;;10324306;28;20259;-85
2023/09/16 15:07:08;;;;;;;8.52;4.75;;;23.20;38.20;;;;;;10321932;28;20652;-85
2023/09/16 15:12:11;;;;;;;4.38;3.90;;;23.20;39.70;;;;;;10307144;28;20229;-85
2023/09/16 15:17:13;;;;;;;4.72;4.32;;;23.20;36.80;;;;;;10324022;28;20237;-85
2023/09/16 15:22:16;;;;;;;10.45;4.75;;;23.20;44.90;;;;;;10323138;28;20284;-85
2023/09/16 15:27:20;;;;;;;9.00;5.20;;;23.20;47.80;;;;;;10324497;28;20241;-85
2023/09/16 15:32:24;;;;;;;7.35;5.70;;;23.30;47.50;;;;;;10323951;28;20236;-85
2023/09/16 15:37:46;;;;;;;7.78;4.32;;;23.30;52.70;;;;;;10306373;28;20232;-85
2023/09/16 15:42:55;;;;;;;8.30;4.43;;;23.30;57.20;;;;;;10230509;28;10001367;-85
2023/09/16 15:47:58;;;;;;;7.22;4.85;;;23.20;42.10;;;;;;10297777;28;20466;-86
2023/09/16 15:53:00;;;;;;;6.47;5.35;;;23.10;48.60;;;;;;10306292;28;20236;-86
2023/09/16 15:58:03;;;;;;;6.75;4.43;;;23.00;60.60;;;;;;10366668;28;20306;-86
2023/09/16 16:03:07;;;;;;;8.00;4.03;;;22.90;52.90;;;;;;10369319;28;20243;-86
2023/09/16 16:08:14;;;;;;;4.75;4.00;;;22.80;48.70;;;;;;10327269;28;20279;-86
2023/09/16 16:13:20;;;;;;;7.78;4.03;;;22.70;52.20;;;;;;10326801;28;20233;-86
2023/09/16 16:18:23;;;;;;;6.53;4.53;;;22.60;60.30;;;;;;10326249;28;20229;-86
2023/09/16 16:23:26;;;;;;;6.15;4.72;;;22.50;66.80;;;;;;10327650;28;20423;-86
2023/09/16 16:28:29;;;;;;;7.20;5.13;;;22.40;61.20;;;;;;10328121;28;20694;-86
2023/09/16 16:33:32;;;;;;;6.68;4.25;;;22.10;62.60;;;;;;10326804;28;20683;-86
2023/09/16 16:38:35;;;;;;;7.72;4.72;;;21.90;60.40;;;;;;10339637;28;20640;-86
2023/09/16 16:43:37;;;;;;;7.18;3.90;;;21.70;75.60;;;;;;10334126;28;20251;-86
2023/09/16 16:48:40;;;;;;;6.60;3.72;;;21.50;70.70;;;;;;10390093;28;20297;-85
2023/09/16 16:53:42;;;;;;;4.95;4.00;;;21.30;69.30;;;;;;10373292;28;20755;-86
2023/09/16 16:58:45;;;;;;;4.22;3.83;;;21.00;79.10;;;;;;10369575;28;20240;-86
2023/09/16 17:03:47;;;;;;;19.15;4.70;;;20.80;76.30;;;;;;10367644;28;20609;-87
2023/09/16 17:08:51;;;;;;;7.72;3.97;;;20.50;75.70;;;;;;10366055;28;20272;-85
2023/09/16 17:13:53;;;;;;;7.45;4.38;;;20.10;80.50;;;;;;10351810;28;20267;-86
2023/09/16 17:18:56;;;;;;;13.07;4.80;;;19.70;83.50;;;;;;10368347;28;20609;-85
2023/09/16 17:23:59;;;;;;;8.65;3.95;;;19.20;91.90;;;;;;10351963;28;20278;-86
2023/09/16 17:29:02;;;;;;;8.45;5.15;;;18.70;94.10;;;;;;10366785;28;20329;-86
2023/09/16 17:34:04;;;;;;;8.45;5.75;;;18.30;96.00;;;;;;10367915;28;20685;-86
2023/09/16 17:39:07;;;;;;;11.18;5.28;;;18.20;97.00;;;;;;10350811;28;20698;-86
2023/09/16 17:44:09;;;;;;;7.57;5.05;;;17.90;97.60;;;;;;10341677;28;20623;-86
2023/09/16 17:49:12;;;;;;;9.88;4.65;;;17.70;98.60;;;;;;10325863;28;20264;-86
2023/09/16 17:54:17;;;;;;;9.98;5.03;;;17.50;99.90;;;;;;10327749;28;20232;-86
2023/09/16 17:59:20;;;;;;;8.73;5.50;;;17.20;99.90;;;;;;10326977;28;20233;-86
2023/09/16 18:04:23;;;;;;;10.48;5.25;;;17.00;99.90;;;;;;10324602;28;20869;-86
2023/09/16 18:09:25;;;;;;;11.05;5.60;;;16.70;99.90;;;;;;10309143;28;20331;-86
2023/09/16 18:14:28;;;;;;;11.95;6.18;;;16.60;99.90;;;;;;10325774;28;20283;-85
2023/09/16 18:19:30;;;;;;;26.13;7.53;;;16.40;99.90;;;;;;10287486;28;20717;-85
2023/09/16 18:24:35;;;;;;;14.10;7.68;;;16.20;99.90;;;;;;10273527;28;20281;-85
2023/09/16 18:29:38;;;;;;;15.52;8.10;;;16.00;99.90;;;;;;10292176;28;20261;-85
2023/09/16 18:34:40;;;;;;;11.98;7.50;;;15.80;99.90;;;;;;10286433;28;20684;-85
2023/09/16 18:39:44;;;;;;;14.93;6.63;;;15.70;99.90;;;;;;10286344;28;20711;-85
2023/09/16 18:44:47;;;;;;;11.40;6.93;;;15.70;99.90;;;;;;10285562;28;20718;-84
2023/09/16 18:49:50;;;;;;;15.25;6.32;;;15.50;99.90;;;;;;10285042;28;20256;-84
2023/09/16 18:54:52;;;;;;;8.00;6.28;;;15.50;99.90;;;;;;10283744;28;20292;-85
2023/09/16 18:59:55;;;;;;;11.27;7.40;;;15.30;99.90;;;;;;10286026;28;20268;-85
2023/09/16 19:04:57;;;;;;;16.92;9.45;;;15.10;99.90;;;;;;10284935;28;20237;-85
2023/09/16 19:10:00;;;;;;;14.80;8.32;;;15.00;99.90;;;;;;10285345;28;20713;-85
2023/09/16 19:15:04;;;;;;;14.40;8.88;;;14.90;99.90;;;;;;10289669;28;20296;-85
2023/09/16 19:20:08;;;;;;;19.58;8.70;;;14.70;99.90;;;;;;10299759;28;20251;-85
2023/09/16 19:25:10;;;;;;;18.17;9.07;;;14.60;99.90;;;;;;10281743;28;20264;-85
2023/09/16 19:30:13;;;;;;;20.90;9.10;;;14.40;99.90;;;;;;10276043;28;20257;-86
2023/09/16 19:35:16;;;;;;;14.13;9.35;;;14.30;99.90;;;;;;10291838;28;21042;-86
2023/09/16 19:40:19;;;;;;;16.27;8.73;;;14.20;99.90;;;;;;10291097;28;20202;-86
2023/09/16 19:45:21;;;;;;;16.83;10.05;;;14.20;99.90;;;;;;10292251;28;20273;-86
2023/09/16 19:50:25;;;;;;;19.05;9.75;;;14.00;99.90;;;;;;10290540;28;20252;-86
2023/09/16 19:55:28;;;;;;;22.88;10.13;;;13.90;99.90;;;;;;10274202;28;20268;-86
2023/09/16 20:00:32;;;;;;;15.73;9.48;;;13.80;99.90;;;;;;10303423;28;20241;-86
2023/09/16 20:05:36;;;;;;;19.45;9.85;;;13.80;99.90;;;;;;10291430;28;20238;-86
2023/09/16 20:10:38;;;;;;;15.25;9.95;;;13.80;99.90;;;;;;10290699;28;20257;-85
2023/09/16 20:15:41;;;;;;;14.65;9.32;;;13.70;99.90;;;;;;10290179;28;20641;-86
2023/09/16 20:20:43;;;;;;;13.32;10.25;;;13.70;99.90;;;;;;10284321;28;20241;-86
2023/09/16 20:25:49;;;;;;;17.13;9.85;;;13.80;99.90;;;;;;10288161;28;20989;-86
2023/09/16 20:30:51;;;;;;;18.90;10.52;;;13.80;99.90;;;;;;9601575;28;10000627;-86
2023/09/16 20:35:54;;;;;;;17.30;10.98;;;14.00;99.90;;;;;;10285284;28;20681;-86
2023/09/16 20:40:57;;;;;;;16.20;10.35;;;14.10;99.90;;;;;;10285578;28;20331;-85
2023/09/16 20:45:59;;;;;;;15.80;11.35;;;14.30;99.90;;;;;;10331707;28;20763;-86
2023/09/16 20:51:02;;;;;;;14.57;10.63;;;14.40;99.90;;;;;;10326050;28;20695;-85
2023/09/16 20:56:04;;;;;;;20.95;11.70;;;14.40;99.90;;;;;;10326370;28;20240;-86
2023/09/16 21:01:07;;;;;;;17.27;11.48;;;14.40;99.90;;;;;;10332731;28;20241;-87
2023/09/16 21:06:10;;;;;;;15.98;10.35;;;14.30;99.90;;;;;;10329217;28;20303;-86
2023/09/16 21:11:12;;;;;;;14.82;10.82;;;14.30;99.90;;;;;;10364510;28;20714;-85
2023/09/16 21:16:15;;;;;;;15.60;10.85;;;14.20;99.90;;;;;;10366657;28;20235;-85
2023/09/16 21:21:17;;;;;;;20.27;10.98;;;14.10;99.90;;;;;;10335061;28;20252;-85
2023/09/16 21:26:20;;;;;;;16.25;10.57;;;14.10;99.90;;;;;;10325070;28;20260;-85
2023/09/16 21:31:22;;;;;;;16.73;11.13;;;14.10;99.90;;;;;;10353230;28;20252;-85
2023/09/16 21:36:25;;;;;;;17.50;10.32;;;14.10;99.90;;;;;;10347666;28;20286;-85
2023/09/16 21:41:27;;;;;;;16.10;10.45;;;14.10;99.90;;;;;;10328064;28;20295;-86
2023/09/16 21:46:30;;;;;;;13.93;10.85;;;14.10;99.90;;;;;;10296651;28;20293;-86
2023/09/16 21:51:33;;;;;;;15.88;11.50;;;14.10;99.90;;;;;;10284808;28;20257;-85
2023/09/16 21:56:35;;;;;;;13.52;9.88;;;14.00;99.90;;;;;;10283533;28;20245;-86
2023/09/16 22:01:38;;;;;;;11.98;10.45;;;14.00;99.90;;;;;;10318640;28;21038;-86
2023/09/16 22:06:41;;;;;;;12.18;10.13;;;13.90;99.90;;;;;;10300811;28;20229;-86
2023/09/16 22:11:43;;;;;;;20.67;12.02;;;13.80;99.90;;;;;;10283116;28;20249;-85
2023/09/16 22:16:46;;;;;;;15.88;10.70;;;13.80;99.90;;;;;;10282304;28;20233;-85
2023/09/16 22:21:48;;;;;;;17.40;11.70;;;13.70;99.90;;;;;;10283275;28;20233;-85
2023/09/16 22:26:51;;;;;;;17.95;11.95;;;13.70;99.90;;;;;;10281356;28;20261;-85
2023/09/16 22:31:54;;;;;;;22.20;12.52;;;13.60;99.90;;;;;;10283314;28;20248;-85
2023/09/16 22:36:56;;;;;;;18.60;12.18;;;13.60;99.90;;;;;;10282997;28;20731;-85
2023/09/16 22:41:59;;;;;;;17.33;10.95;;;13.50;99.90;;;;;;10279339;28;20241;-85
2023/09/16 22:47:03;;;;;;;16.58;11.80;;;13.50;99.90;;;;;;10292554;28;20652;-85
2023/09/16 22:52:05;;;;;;;17.65;11.82;;;13.40;99.90;;;;;;10276933;28;20265;-85
2023/09/16 22:57:08;;;;;;;12.43;10.07;;;13.30;99.90;;;;;;10293586;28;20315;-85
2023/09/16 23:02:11;;;;;;;13.77;10.48;;;13.30;99.90;;;;;;10275273;28;20234;-86
2023/09/16 23:07:14;;;;;;;13.60;10.68;;;13.20;99.90;;;;;;10292707;28;20681;-86
2023/09/16 23:12:16;;;;;;;17.67;11.77;;;13.10;99.90;;;;;;10291468;28;20253;-86
2023/09/16 23:17:19;;;;;;;19.15;11.40;;;13.10;99.90;;;;;;10292838;28;20614;-86
2023/09/16 23:22:22;;;;;;;18.13;10.85;;;13.10;99.90;;;;;;10291953;28;20284;-86
2023/09/16 23:27:25;;;;;;;16.88;11.63;;;13.00;99.90;;;;;;10274679;28;20245;-86
2023/09/16 23:32:27;;;;;;;15.95;10.77;;;13.10;99.90;;;;;;10289429;28;20280;-86
2023/09/16 23:37:30;;;;;;;20.25;13.15;;;13.00;99.90;;;;;;10292700;28;20226;-86
2023/09/16 23:42:33;;;;;;;19.50;11.52;;;13.00;99.90;;;;;;10292216;28;20323;-86
2023/09/16 23:47:36;;;;;;;18.27;12.30;;;13.00;99.90;;;;;;10287065;28;20233;-86
2023/09/16 23:52:38;;;;;;;14.00;11.07;;;13.00;99.90;;;;;;10292462;28;20253;-86
2023/09/16 23:57:41;;;;;;;15.60;11.90;;;12.90;99.90;;;;;;10292779;28;20708;-86
